Chanhassen, MN

12:45 PM CDT on May 28, 2015 (GMT -0500)
Marsh Drive | Change Station
CLOSE
Current Station
Personal Weather Station
Location: Chanhassen, MN
Elevation: 915 ft
Nearby Weather Stations

Elev 915 ft 44.85 °N, 93.53 °W | Updated 26 seconds ago

Clear
Clear
84.3 °F
Feels Like 85 °F
N
4.0
Wind Variable Wind from West
Gusts 4.0 mph

Today
High -- | Low -- °F
--% Chance of Precip.
Yesterday
High -- | Low -- °F
Precip. -- in
5:34 AM 8:49 PM
Waxing Gibbous, 77% visible
Pressure 30.03 in
Visibility 10.0 miles
Clouds Clear
Heat Index 85 °F
Dew Point 62 °F
Humidity 48%
Rainfall 0.00 in
Snow Depth Not available.
UV 10 out of 12
Pollen 7.00 out of 12
Ozone Good
PM10 Good
Flu Activity Sporadic
METAR KFCM 281653Z 21012KT 10SM CLR 27/13 A3004 RMK AO2 SLP167 T02670128

More Conditions Fewer Conditions

Pressure 30.03 in
Visibility 10.0 miles
Clouds Clear
Heat Index 85 °F
Dew Point 62 °F
Humidity 48%
Rainfall 0.00 in
Snow Depth Not available.
UV 10 out of 12
Pollen 7.00 out of 12
Ozone Good
PM10 Good
Flu Activity Sporadic
METAR KFCM 281653Z 21012KT 10SM CLR 27/13 A3004 RMK AO2 SLP167 T02670128

More Conditions Fewer Conditions

10-Day Weather Forecast

Almanac

Astronomy

May. 28, 2015 Rise Set
Actual Time 5:34 AM CDT 8:49 PM CDT
Civil Twilight 4:58 AM CDT 9:25 PM CDT
Nautical Twilight 4:12 AM CDT 10:11 PM CDT
Astronomical Twilight 3:14 AM CDT 11:09 PM CDT
Moon 3:50 PM CDT 3:00 AM CDT
Length of Visible Light 16h 27m
Length of Day
15h 15m
Tomorrow will be 1m 36s longer.
Waxing Gibbous, 77% of the Moon is Illuminated
Today
Waxing Gibbous
Jun 2
Full
Jun 9
Last Quarter
Jun 16
New
Jun 24
First Quarter

Today's Extremes

State Highs State Lows

Community

WunderPhotos

Upload Photos

1,825,007 photos uploaded!

Nearby

Air Quality

  Air Quality AQ Index Pollutant
Yesterday Moderate
OZONE
Yesterday Good
PM10
Current Good
PM10
Current Good
OZONE
Thursday Moderate
OZONE
Thursday Moderate
PM2.5
Friday Good
PM2.5
Friday Good
OZONE
Saturday Good
OZONE
Saturday Good
PM2.5
Sunday Good
PM2.5
Sunday Good
OZONE
Monday Moderate
PM2.5
Monday Good
OZONE
Tuesday Moderate
OZONE
Tuesday Moderate
PM2.5

Snow Depth

Station Depth Elevation
No new snow has been reported.

Earthquake Activity

City Distance Mag. Time & Date
No recent earthquake activity has been reported nearby.
Minimum magnitude displayed is 2.5.

Coastal Water Temperatures

Place Temperature
No Stations Reporting

Nearby Weather Stations